Time;durP1;ratioP1;P1;durP2;ratioP2;P2;SDS_P1;SDS_P2;PMS_P1;PMS_P2;Temp;Humidity;BMP_temperature;BMP_pressure;BME280_temperature;BME280_humidity;BME280_pressure;Samples;Min_cycle;Max_cycle;Signal;HPM_P1;HPM_P2
2021/08/09 00:00:16;;;;;;;1999.90;999.90;;;;;;;10.96;48.79;101095.75;5015350;27;99219;-73
2021/08/09 00:02:45;;;;;;;1999.90;999.90;;;;;;;11.01;48.57;101090.53;5014493;27;98646;-73
2021/08/09 00:05:14;;;;;;;1999.90;999.90;;;;;;;11.07;48.76;101093.34;5019907;27;97777;-73
2021/08/09 00:07:41;;;;;;;1999.90;999.90;;;;;;;11.11;48.57;101089.88;5015704;27;99406;-73
2021/08/09 00:10:10;;;;;;;1999.90;999.90;;;;;;;11.13;48.52;101094.41;5017157;27;98866;-72
2021/08/09 00:12:37;;;;;;;1999.90;999.90;;;;;;;11.16;48.44;101091.78;5019218;27;97144;-73
2021/08/09 00:15:07;;;;;;;1999.90;999.90;;;;;;;11.21;48.50;101092.78;5029413;27;97372;-73
2021/08/09 00:17:34;;;;;;;1999.90;999.90;;;;;;;11.26;48.49;101098.25;5012306;27;99214;-72
2021/08/09 00:20:04;;;;;;;1999.90;999.90;;;;;;;11.32;48.45;101094.88;5028152;27;98314;-73
2021/08/09 00:22:32;;;;;;;1999.90;999.90;;;;;;;11.35;48.25;101098.50;5019232;27;97736;-73
2021/08/09 00:25:00;;;;;;;1999.90;999.90;;;;;;;11.37;48.18;101083.44;5028984;27;97163;-73
2021/08/09 00:27:28;;;;;;;1999.90;999.90;;;;;;;11.40;48.43;101087.94;5013776;27;97777;-73
2021/08/09 00:29:56;;;;;;;1999.90;999.90;;;;;;;11.41;48.38;101103.06;5032076;27;97751;-73
2021/08/09 00:32:23;;;;;;;1999.90;999.90;;;;;;;11.40;48.37;101095.91;5033412;27;97456;-73
2021/08/09 00:34:51;;;;;;;1999.90;999.90;;;;;;;11.40;48.45;101104.81;5018235;27;96962;-74
2021/08/09 00:37:20;;;;;;;1999.90;999.90;;;;;;;11.41;48.38;101100.41;5010762;27;97680;-73
2021/08/09 00:39:48;;;;;;;1999.90;999.90;;;;;;;11.41;48.50;101105.72;5001639;28;99547;-73
2021/08/09 00:42:17;;;;;;;1999.90;999.90;;;;;;;11.39;48.49;101107.47;5031986;27;96711;-73
2021/08/09 00:44:44;;;;;;;1999.90;999.90;;;;;;;11.39;48.57;101108.38;5016235;27;97444;-73
2021/08/09 00:47:15;;;;;;;1999.90;999.90;;;;;;;11.39;48.36;101103.03;5037286;27;98666;-73
2021/08/09 00:49:43;;;;;;;1999.90;999.90;;;;;;;11.41;48.58;101095.97;5021568;27;98191;-73
2021/08/09 00:52:12;;;;;;;1999.90;999.90;;;;;;;11.40;48.60;101104.81;5020667;27;96889;-72
2021/08/09 00:54:42;;;;;;;1999.90;999.90;;;;;;;11.42;48.64;101112.84;5002423;28;97437;-72
2021/08/09 00:57:11;;;;;;;1999.90;999.90;;;;;;;11.41;48.51;101101.31;5018530;27;99325;-73
2021/08/09 00:59:41;;;;;;;1999.90;999.90;;;;;;;11.43;48.60;101107.56;5017499;27;100634;-73
2021/08/09 01:02:08;;;;;;;1999.90;999.90;;;;;;;11.41;48.74;101101.31;5017364;27;97547;-74
2021/08/09 01:04:39;;;;;;;1999.90;999.90;;;;;;;11.42;48.69;101107.50;5002621;28;97169;-73
2021/08/09 01:07:08;;;;;;;1999.90;999.90;;;;;;;11.41;48.50;101109.31;5020480;27;99110;-73
2021/08/09 01:09:44;;;;;;;1999.90;999.90;;;;;;;11.40;48.87;101104.81;5021551;27;100336;-72
2021/08/09 01:12:19;;;;;;;1999.90;999.90;;;;;;;11.40;48.67;101120.81;5038171;27;97269;-73
2021/08/09 01:14:56;;;;;;;1999.90;999.90;;;;;;;11.37;48.78;101120.75;5004974;28;98123;-72
2021/08/09 01:17:28;;;;;;;1999.90;999.90;;;;;;;11.38;48.78;101127.00;5020742;27;102578;-73
2021/08/09 01:20:10;;;;;;;1999.90;999.90;;;;;;;11.37;48.79;101128.75;4992160;28;99864;-73
2021/08/09 01:22:47;;;;;;;1999.90;999.90;;;;;;;11.34;48.86;101126.03;5017288;27;96963;-72
2021/08/09 01:25:23;;;;;;;1999.90;999.90;;;;;;;11.32;48.81;101126.84;5015843;27;97312;-73
2021/08/09 01:27:55;;;;;;;1999.90;999.90;;;;;;;11.30;48.73;101121.44;5015724;27;100960;-72
2021/08/09 01:30:25;;;;;;;1999.90;999.90;;;;;;;11.30;48.98;101125.84;5018017;27;98894;-75
2021/08/09 01:32:54;;;;;;;1999.90;999.90;;;;;;;11.26;49.00;101119.56;5002572;27;97387;-72
2021/08/09 01:35:24;;;;;;;1999.90;999.90;;;;;;;11.23;49.08;101128.38;5034987;27;97058;-73
2021/08/09 01:37:58;;;;;;;1999.90;999.90;;;;;;;11.25;49.03;101120.41;5021223;27;99129;-73
2021/08/09 01:40:32;;;;;;;1999.90;999.90;;;;;;;11.24;49.08;101129.28;5020582;27;100610;-73
2021/08/09 01:43:03;;;;;;;1999.90;999.90;;;;;;;11.24;49.44;101134.59;5037574;27;98191;-73
2021/08/09 01:45:31;;;;;;;1999.90;999.90;;;;;;;11.25;49.19;101136.38;5020990;27;97315;-73
2021/08/09 01:48:00;;;;;;;1999.90;999.90;;;;;;;11.23;49.31;101123.03;5019445;27;99168;-73
2021/08/09 01:50:34;;;;;;;1999.90;999.90;;;;;;;11.25;49.23;101138.19;5021683;27;98830;-73
2021/08/09 01:53:03;;;;;;;1999.90;999.90;;;;;;;11.24;49.18;101134.59;5037184;27;97051;-74
2021/08/09 01:55:31;;;;;;;1999.90;999.90;;;;;;;11.23;49.18;101135.47;4998564;27;96937;-72
2021/08/09 01:57:59;;;;;;;1999.90;999.90;;;;;;;11.22;49.12;101139.00;5033194;27;100547;-73
2021/08/09 02:00:30;;;;;;;1999.90;999.90;;;;;;;11.22;49.25;101136.31;5030494;27;99552;-72
2021/08/09 02:02:59;;;;;;;1999.90;999.90;;;;;;;11.19;49.31;101134.50;5036604;27;97489;-73
2021/08/09 02:05:29;;;;;;;1999.90;999.90;;;;;;;11.21;49.31;101145.19;5033763;27;98894;-73
2021/08/09 02:08:00;;;;;;;1999.90;999.90;;;;;;;11.19;49.33;101138.94;5001694;28;100637;-72
2021/08/09 02:10:31;;;;;;;1999.90;999.90;;;;;;;11.16;49.37;101141.50;5016112;27;98699;-73
2021/08/09 02:13:08;;;;;;;1999.90;999.90;;;;;;;11.15;49.61;101147.69;5030822;27;97461;-73
2021/08/09 02:15:48;;;;;;;1999.90;999.90;;;;;;;11.13;49.52;101146.75;5021599;27;97644;-73
2021/08/09 02:18:19;;;;;;;1999.90;999.90;;;;;;;11.11;49.33;101149.41;5020864;27;99591;-72
2021/08/09 02:20:48;;;;;;;1999.90;999.90;;;;;;;11.12;49.38;101153.84;5037965;27;100335;-74
2021/08/09 02:23:19;;;;;;;1999.90;999.90;;;;;;;11.49;49.52;101146.78;5016503;27;97504;-73
2021/08/09 02:25:49;;;;;;;1999.90;999.90;;;;;;;11.27;50.05;101145.31;5035552;27;98286;-73
2021/08/09 02:28:18;;;;;;;1999.90;999.90;;;;;;;11.21;50.08;101145.19;5018762;27;99130;-75
2021/08/09 02:30:52;;;;;;;1999.90;999.90;;;;;;;11.16;50.01;101153.06;5003515;28;99384;-72
2021/08/09 02:33:22;;;;;;;1999.90;999.90;;;;;;;11.12;50.13;101159.16;5020036;27;97269;-73
2021/08/09 02:35:51;;;;;;;1999.90;999.90;;;;;;;11.08;50.19;101159.06;4999120;27;97582;-73
2021/08/09 02:38:22;;;;;;;1999.90;999.90;;;;;;;11.06;50.21;101160.78;5009601;27;101466;-72
2021/08/09 02:40:50;;;;;;;1999.90;999.90;;;;;;;11.00;50.31;101160.63;5032012;27;97828;-73
2021/08/09 02:43:18;;;;;;;1999.90;999.90;;;;;;;10.94;50.20;101158.72;5032467;27;96903;-71
2021/08/09 02:45:56;;;;;;;1999.90;999.90;;;;;;;10.92;50.30;101164.88;5017944;27;97396;-73
2021/08/09 02:48:24;;;;;;;1999.90;999.90;;;;;;;10.92;50.46;101162.22;5002902;27;99705;-72
2021/08/09 02:50:51;;;;;;;1999.90;999.90;;;;;;;10.91;50.41;101161.31;5004508;28;99740;-73
2021/08/09 02:53:21;;;;;;;1999.90;999.90;;;;;;;10.88;50.25;101161.25;5014743;27;97228;-73
2021/08/09 02:55:51;;;;;;;1999.90;999.90;;;;;;;10.87;50.33;101163.84;5029885;27;97970;-75
2021/08/09 02:58:20;;;;;;;1999.90;999.90;;;;;;;10.87;50.36;101162.09;5016845;27;98033;-74
2021/08/09 03:00:48;;;;;;;1999.90;999.90;;;;;;;10.87;50.50;101164.75;5015986;27;99139;-75
2021/08/09 03:03:21;;;;;;;1999.90;999.90;;;;;;;10.85;50.47;101168.25;5034819;27;96831;-75
2021/08/09 03:05:53;;;;;;;1999.90;999.90;;;;;;;10.84;50.52;101174.41;4997485;28;97230;-73
2021/08/09 03:08:21;;;;;;;1999.90;999.90;;;;;;;10.87;50.56;101169.16;5017349;27;99311;-75
2021/08/09 03:10:50;;;;;;;1999.90;999.90;;;;;;;10.88;50.77;101165.66;5018162;27;100310;-75
2021/08/09 03:13:20;;;;;;;1999.90;999.90;;;;;;;10.89;50.47;101171.00;5019193;27;97392;-72
2021/08/09 03:15:48;;;;;;;1999.90;999.90;;;;;;;10.91;50.26;101171.03;5020566;27;98166;-75
2021/08/09 03:18:18;;;;;;;1999.90;999.90;;;;;;;11.31;50.32;101172.94;5011564;27;98734;-73
2021/08/09 03:20:47;;;;;;;1999.90;999.90;;;;;;;11.11;50.78;101177.78;5000102;28;98115;-73
2021/08/09 03:23:15;;;;;;;1999.90;999.90;;;;;;;11.08;50.85;101183.94;4998521;27;97931;-75
2021/08/09 03:25:42;;;;;;;1999.90;999.90;;;;;;;11.07;50.95;101179.47;5018610;27;98037;-74
2021/08/09 03:28:11;;;;;;;1999.90;999.90;;;;;;;11.07;50.62;101186.53;5018843;27;101057;-72
2021/08/09 03:30:39;;;;;;;1999.90;999.90;;;;;;;11.04;50.58;101189.16;5019677;27;99606;-72
2021/08/09 03:33:07;;;;;;;1999.90;999.90;;;;;;;11.02;50.78;101188.19;5017006;27;97165;-73
2021/08/09 03:35:36;;;;;;;1999.90;999.90;;;;;;;11.02;50.93;101196.19;5003260;28;97873;-73
2021/08/09 03:38:06;;;;;;;1999.90;999.90;;;;;;;11.01;50.89;101189.94;5016317;27;97880;-75
2021/08/09 03:40:35;;;;;;;1999.90;999.90;;;;;;;10.98;50.83;101188.97;4997402;28;100740;-75
2021/08/09 03:43:03;;;;;;;1999.90;999.90;;;;;;;10.97;50.89;101187.19;5015561;27;97868;-75
2021/08/09 03:45:31;;;;;;;1999.90;999.90;;;;;;;10.95;50.83;101188.91;5017929;27;97520;-74
2021/08/09 03:47:59;;;;;;;1999.90;999.90;;;;;;;10.88;50.99;101186.94;5017028;27;97878;-74
2021/08/09 03:50:27;;;;;;;1999.90;999.90;;;;;;;10.87;50.94;101190.47;5019202;27;100693;-74
2021/08/09 03:52:56;;;;;;;1999.90;999.90;;;;;;;10.83;51.21;101196.59;5016762;27;97138;-74
2021/08/09 03:55:25;;;;;;;1999.90;999.90;;;;;;;10.80;51.14;101189.41;5030529;27;97457;-74
2021/08/09 03:57:53;;;;;;;1999.90;999.90;;;;;;;10.81;51.20;101190.31;5001894;28;100553;-75
2021/08/09 04:00:21;;;;;;;1999.90;999.90;;;;;;;10.81;51.23;101190.31;5009109;27;98092;-74
2021/08/09 04:02:51;;;;;;;1999.90;999.90;;;;;;;10.84;51.12;101190.38;5013238;27;97671;-74
2021/08/09 04:05:24;;;;;;;1999.90;999.90;;;;;;;10.85;50.92;101187.75;5016387;27;97043;-73
2021/08/09 04:07:53;;;;;;;1999.90;999.90;;;;;;;10.87;51.07;101188.72;5013099;27;97727;-75
2021/08/09 04:10:21;;;;;;;1999.90;999.90;;;;;;;10.90;51.03;101195.88;4996210;27;99291;-74
2021/08/09 04:12:51;;;;;;;1999.90;999.90;;;;;;;10.92;50.84;101191.50;5015621;27;97292;-74
2021/08/09 04:15:20;;;;;;;1999.90;999.90;;;;;;;10.94;50.90;101192.44;5032174;27;97923;-75
2021/08/09 04:17:48;;;;;;;1999.90;999.90;;;;;;;10.96;50.81;101196.94;5018089;27;97264;-74
2021/08/09 04:20:16;;;;;;;1999.90;999.90;;;;;;;10.96;51.01;101198.69;5015174;27;97579;-74
2021/08/09 04:22:43;;;;;;;1999.90;999.90;;;;;;;10.97;50.98;101198.75;5031918;27;97121;-73
2021/08/09 04:25:11;;;;;;;1999.90;999.90;;;;;;;10.94;51.10;101203.97;4999005;27;97837;-74
2021/08/09 04:27:39;;;;;;;1999.90;999.90;;;;;;;10.94;50.95;101205.75;4998063;27;99208;-74
2021/08/09 04:30:10;;;;;;;1999.90;999.90;;;;;;;10.94;51.11;101213.75;4997665;28;99167;-75
2021/08/09 04:32:44;;;;;;;1999.90;999.90;;;;;;;10.95;50.78;101215.53;5014851;27;97778;-74
2021/08/09 04:35:14;;;;;;;1999.90;999.90;;;;;;;10.92;51.07;101208.34;4998544;27;97381;-74
2021/08/09 04:37:46;;;;;;;1999.90;999.90;;;;;;;10.89;51.29;101216.28;4983226;28;100764;-74
2021/08/09 04:40:14;;;;;;;1999.90;999.90;;;;;;;10.89;51.07;101212.69;5014387;27;99304;-74
2021/08/09 04:42:44;;;;;;;1999.90;999.90;;;;;;;10.88;51.08;101218.91;5000006;28;97254;-74
2021/08/09 04:45:16;;;;;;;1999.90;999.90;;;;;;;10.85;51.15;101219.72;5001471;27;97333;-74
2021/08/09 04:47:43;;;;;;;1999.90;999.90;;;;;;;10.85;51.08;101221.50;5033209;27;98799;-75
2021/08/09 04:50:13;;;;;;;1999.90;999.90;;;;;;;10.81;51.15;101219.59;5028700;27;97918;-74
2021/08/09 04:52:41;;;;;;;1999.90;999.90;;;;;;;10.79;50.96;101229.31;5000534;28;97896;-74
2021/08/09 04:55:13;;;;;;;1999.90;999.90;;;;;;;10.82;51.08;101237.38;5019014;27;97079;-73
2021/08/09 04:57:41;;;;;;;1999.90;999.90;;;;;;;10.75;51.18;101227.41;5014389;27;100287;-74
2021/08/09 05:00:13;;;;;;;1999.90;999.90;;;;;;;10.71;51.33;101223.75;4994971;27;99319;-74
2021/08/09 05:02:43;;;;;;;1999.90;999.90;;;;;;;10.71;51.27;101225.53;5018593;27;97084;-74
2021/08/09 05:05:14;;;;;;;1999.90;999.90;;;;;;;10.66;51.55;101228.06;5030979;27;97059;-74
2021/08/09 05:07:43;;;;;;;1999.90;999.90;;;;;;;10.65;51.49;101226.25;5000366;28;98489;-74
2021/08/09 05:10:12;;;;;;;1999.90;999.90;;;;;;;10.68;51.57;101233.44;5030531;27;97306;-74
2021/08/09 05:12:41;;;;;;;1999.90;999.90;;;;;;;10.69;51.61;101232.56;5001028;28;97931;-74
2021/08/09 05:15:13;;;;;;;1999.90;999.90;;;;;;;10.73;51.42;101238.03;5012010;27;97351;-74
2021/08/09 05:17:41;;;;;;;1999.90;999.90;;;;;;;10.77;51.46;101241.66;5009958;27;100731;-74
2021/08/09 05:20:11;;;;;;;1999.90;999.90;;;;;;;10.81;51.53;101239.13;5011231;27;100709;-73
2021/08/09 05:22:39;;;;;;;1999.90;999.90;;;;;;;10.86;51.22;101233.94;5014728;27;96799;-73
2021/08/09 05:25:10;;;;;;;1999.90;999.90;;;;;;;10.89;51.27;101234.91;5017530;27;97162;-74
2021/08/09 05:27:37;;;;;;;1999.90;999.90;;;;;;;10.94;51.10;101230.59;5015408;27;99888;-74
2021/08/09 05:30:06;;;;;;;1999.90;999.90;;;;;;;11.00;51.03;101241.44;5012163;27;97051;-74
2021/08/09 05:32:35;;;;;;;1999.90;999.90;;;;;;;11.04;51.14;101232.66;5018539;27;97801;-75
2021/08/09 05:35:03;;;;;;;1999.90;999.90;;;;;;;11.06;51.03;101224.72;5029258;27;96761;-74
2021/08/09 05:37:34;;;;;;;1999.90;999.90;;;;;;;11.09;51.13;101224.78;5027439;27;96911;-73
2021/08/09 05:40:07;;;;;;;1999.90;999.90;;;;;;;11.09;51.17;101224.78;5008280;28;100776;-73
2021/08/09 05:42:36;;;;;;;1999.90;999.90;;;;;;;11.11;51.09;101223.06;5046917;27;98368;-74
2021/08/09 05:45:05;;;;;;;1999.90;999.90;;;;;;;11.12;51.12;101225.75;5037906;27;96803;-74
2021/08/09 05:47:35;;;;;;;1999.90;999.90;;;;;;;11.15;51.05;101230.28;5023938;27;100237;-74
2021/08/09 05:50:03;;;;;;;1999.90;999.90;;;;;;;11.18;51.08;101236.59;5024834;27;97369;-74
2021/08/09 05:52:36;;;;;;;1999.90;999.90;;;;;;;11.24;51.00;101241.16;5045638;27;97601;-73
2021/08/09 05:55:10;;;;;;;1999.90;999.90;;;;;;;11.27;51.17;101233.25;5018082;27;97818;-74
2021/08/09 05:57:39;;;;;;;1999.90;999.90;;;;;;;11.31;51.29;101239.53;5022638;27;99034;-74
2021/08/09 06:00:08;;;;;;;1999.90;999.90;;;;;;;11.33;51.14;101236.09;5016742;27;99525;-74
2021/08/09 06:02:42;;;;;;;1999.90;999.90;;;;;;;11.36;50.88;101233.50;5019266;27;97776;-75
2021/08/09 06:05:18;;;;;;;1999.90;999.90;;;;;;;11.40;50.94;101232.72;5001171;27;97385;-74
2021/08/09 06:07:51;;;;;;;1999.90;999.90;;;;;;;11.45;51.01;101230.19;5035307;27;98263;-74
2021/08/09 06:10:22;;;;;;;1999.90;999.90;;;;;;;11.49;51.06;101232.94;5000729;27;100323;-74
2021/08/09 06:12:50;;;;;;;1999.90;999.90;;;;;;;11.51;50.86;101244.56;4998022;28;97869;-74
2021/08/09 06:15:18;;;;;;;1999.90;999.90;;;;;;;11.54;50.80;101241.06;5003952;27;97568;-74
2021/08/09 06:17:46;;;;;;;1999.90;999.90;;;;;;;11.60;51.05;101233.19;4996883;28;99605;-75
2021/08/09 06:20:15;;;;;;;1999.90;999.90;;;;;;;11.65;50.92;101228.91;5014402;27;100851;-74
2021/08/09 06:22:42;;;;;;;1999.90;999.90;;;;;;;11.66;50.75;101230.69;5032199;27;97221;-73
2021/08/09 06:25:12;;;;;;;1999.90;999.90;;;;;;;11.72;50.68;101230.84;5009464;27;97536;-75
2021/08/09 06:27:41;;;;;;;1999.90;999.90;;;;;;;11.76;50.67;101222.06;5004257;28;99568;-74
2021/08/09 06:30:10;;;;;;;1999.90;999.90;;;;;;;11.83;50.61;101229.34;5029750;27;99207;-75
2021/08/09 06:32:38;;;;;;;1999.90;999.90;;;;;;;11.88;50.63;101241.91;5016435;27;96945;-74
2021/08/09 06:35:08;;;;;;;1999.90;999.90;;;;;;;11.94;50.48;101236.69;5013077;27;97678;-74
2021/08/09 06:37:35;;;;;;;1999.90;999.90;;;;;;;11.99;50.48;101227.06;5020258;27;100661;-74
2021/08/09 06:40:04;;;;;;;1999.90;999.90;;;;;;;12.04;50.47;101235.13;5020501;27;97526;-74
2021/08/09 06:42:38;;;;;;;1999.90;999.90;;;;;;;12.07;50.18;101236.09;5019086;27;98129;-73
2021/08/09 06:45:18;;;;;;;1999.90;999.90;;;;;;;12.10;50.26;101233.53;5034782;27;97754;-73
2021/08/09 06:47:48;;;;;;;1999.90;999.90;;;;;;;12.14;50.03;101222.03;5012072;27;101835;-73
2021/08/09 06:50:16;;;;;;;1999.90;999.90;;;;;;;12.20;50.14;101215.09;5029377;27;99015;-74
2021/08/09 06:52:44;;;;;;;1999.90;999.90;;;;;;;12.25;49.79;101218.75;5017382;28;98903;-75
2021/08/09 06:55:12;;;;;;;1999.90;999.90;;;;;;;12.31;49.84;101224.22;5003592;27;97716;-75
2021/08/09 06:57:42;;;;;;;1999.90;999.90;;;;;;;12.35;49.72;101231.41;5013296;27;99719;-74
2021/08/09 07:00:12;;;;;;;1999.90;999.90;;;;;;;12.38;49.83;101231.47;5019722;27;97654;-74
2021/08/09 07:02:40;;;;;;;1999.90;999.90;;;;;;;12.41;49.79;101223.53;4999338;28;96927;-74
2021/08/09 07:05:09;;;;;;;1999.90;999.90;;;;;;;12.44;49.85;101232.50;5018843;27;96833;-73
2021/08/09 07:07:41;;;;;;;1999.90;999.90;;;;;;;12.48;49.83;101237.03;5001871;27;98014;-74
2021/08/09 07:10:10;;;;;;;1999.90;999.90;;;;;;;12.51;49.73;101244.22;5020037;27;98064;-73
2021/08/09 07:12:40;;;;;;;1999.90;999.90;;;;;;;12.56;49.77;101245.22;5037221;27;96950;-73
2021/08/09 07:15:11;;;;;;;1999.90;999.90;;;;;;;12.63;49.51;101244.44;5017443;27;97493;-74
2021/08/09 07:17:40;;;;;;;1999.90;999.90;;;;;;;12.69;49.52;101244.59;5019581;27;100654;-74
2021/08/09 07:20:13;;;;;;;1999.90;999.90;;;;;;;12.74;49.43;101242.91;4999803;27;97790;-74
2021/08/09 07:22:43;;;;;;;1999.90;999.90;;;;;;;12.79;49.36;101250.13;5002591;28;96851;-74
2021/08/09 07:25:13;;;;;;;1999.90;999.90;;;;;;;12.86;49.10;101248.47;5016790;27;97370;-73
2021/08/09 07:27:41;;;;;;;1999.90;999.90;;;;;;;12.92;49.11;101256.59;4999915;28;99105;-73
2021/08/09 07:30:13;;;;;;;1999.90;999.90;;;;;;;12.91;49.00;101261.03;5002863;28;99150;-73
2021/08/09 07:32:43;;;;;;;1999.90;999.90;;;;;;;12.96;48.90;101261.13;5002717;28;97822;-73
2021/08/09 07:35:12;;;;;;;1999.90;999.90;;;;;;;13.01;48.94;101264.81;5002759;27;97774;-74
2021/08/09 07:37:42;;;;;;;1999.90;999.90;;;;;;;13.04;48.89;101265.78;5002351;28;101228;-74
2021/08/09 07:40:11;;;;;;;1999.90;999.90;;;;;;;13.08;48.85;101267.66;5020222;27;99267;-74
2021/08/09 07:42:41;;;;;;;1999.90;999.90;;;;;;;13.07;48.73;101272.97;5018386;27;97155;-74
2021/08/09 07:45:12;;;;;;;1999.90;999.90;;;;;;;13.08;48.66;101264.06;5002656;27;96908;-74
2021/08/09 07:47:41;;;;;;;1999.90;999.90;;;;;;;13.08;48.58;101256.03;5017905;27;97591;-74
2021/08/09 07:50:10;;;;;;;1999.90;999.90;;;;;;;13.12;48.57;101258.81;5030564;27;97674;-74
2021/08/09 07:52:38;;;;;;;1999.90;999.90;;;;;;;13.43;47.89;101260.25;5000644;28;97604;-72
2021/08/09 07:55:06;;;;;;;1999.90;999.90;;;;;;;13.36;48.20;101269.03;5010773;27;97935;-74
2021/08/09 07:57:35;;;;;;;1999.90;999.90;;;;;;;13.36;48.12;101263.69;5016262;27;99837;-74
2021/08/09 08:00:03;;;;;;;1999.90;999.90;;;;;;;13.64;47.51;101254.38;5034193;27;99268;-74
2021/08/09 08:02:32;;;;;;;1999.90;999.90;;;;;;;13.78;47.24;101256.38;5015002;27;97353;-74
2021/08/09 08:05:01;;;;;;;1999.90;999.90;;;;;;;13.90;46.83;101250.34;5031406;27;98039;-74
2021/08/09 08:07:31;;;;;;;1999.90;999.90;;;;;;;14.02;46.42;101250.53;5015370;27;100664;-73
2021/08/09 08:10:01;;;;;;;1999.90;999.90;;;;;;;14.15;46.07;101255.19;4999354;28;99316;-74
2021/08/09 08:12:30;;;;;;;1999.90;999.90;;;;;;;14.26;45.95;101255.34;5000589;27;97529;-74
2021/08/09 08:14:58;;;;;;;1999.90;999.90;;;;;;;14.34;45.31;101250.97;5031153;27;97984;-74
2021/08/09 08:17:26;;;;;;;1999.90;999.90;;;;;;;14.41;44.89;101247.50;5012025;27;98743;-74
2021/08/09 08:19:56;;;;;;;1999.90;999.90;;;;;;;14.50;44.89;101243.13;4995211;28;99728;-72
2021/08/09 08:22:24;;;;;;;1999.90;999.90;;;;;;;14.58;44.97;101246.88;4994296;27;97704;-74
2021/08/09 08:24:52;;;;;;;1999.90;999.90;;;;;;;14.68;44.63;101247.88;5012235;27;97271;-73
2021/08/09 08:27:20;;;;;;;1999.90;999.90;;;;;;;14.76;44.78;101243.50;5017090;27;101433;-74
2021/08/09 08:29:48;;;;;;;1999.90;999.90;;;;;;;14.83;44.26;101237.31;5033187;27;98157;-74
2021/08/09 08:32:17;;;;;;;1999.90;999.90;;;;;;;14.91;44.23;101244.56;5011383;27;96938;-74
2021/08/09 08:34:44;;;;;;;1999.90;999.90;;;;;;;14.98;44.17;101246.44;5016738;27;97925;-74
2021/08/09 08:37:13;;;;;;;1999.90;999.90;;;;;;;15.05;43.73;101247.38;5011831;27;99651;-74
2021/08/09 08:39:42;;;;;;;1999.90;999.90;;;;;;;15.14;43.53;101242.09;5013863;27;98685;-74
2021/08/09 08:42:13;;;;;;;1999.90;999.90;;;;;;;15.22;43.47;101244.88;5016325;27;97507;-74
2021/08/09 08:44:44;;;;;;;1999.90;999.90;;;;;;;15.31;43.19;101242.31;5033492;27;97122;-74
2021/08/09 08:47:14;;;;;;;1999.90;999.90;;;;;;;15.36;42.68;101246.81;5016955;27;99160;-73
2021/08/09 08:49:44;;;;;;;1999.90;999.90;;;;;;;15.17;43.53;101240.34;5010870;27;99549;-74
2021/08/09 08:52:13;;;;;;;1999.90;999.90;;;;;;;15.11;43.66;101245.69;5018196;27;97713;-74
2021/08/09 08:54:42;;;;;;;1999.90;999.90;;;;;;;15.09;44.00;101249.22;5012940;27;98419;-74
2021/08/09 08:57:17;;;;;;;1999.90;999.90;;;;;;;15.07;43.77;101246.53;5014605;27;99469;-74
2021/08/09 08:59:45;;;;;;;1999.90;999.90;;;;;;;15.09;44.13;101250.13;5010806;27;98946;-74
2021/08/09 09:02:31;;;;;;;1999.90;999.90;;;;;;;15.33;42.15;101252.16;5017421;27;98192;-74
2021/08/09 09:05:10;;;;;;;1999.90;999.90;;;;;;;15.46;41.98;101251.41;4998751;28;97487;-74
2021/08/09 09:07:44;;;;;;;1999.90;999.90;;;;;;;15.59;41.99;101250.63;5019328;27;99209;-74
2021/08/09 09:10:15;;;;;;;1999.90;999.90;;;;;;;15.70;41.94;101248.88;5020456;27;99047;-73
2021/08/09 09:12:42;;;;;;;1999.90;999.90;;;;;;;15.80;41.66;101253.44;5021771;27;97548;-74
2021/08/09 09:15:10;;;;;;;1999.90;999.90;;;;;;;15.90;41.28;101246.38;5011488;27;97942;-74
2021/08/09 09:17:39;;;;;;;1999.90;999.90;;;;;;;15.99;40.96;101257.16;5030403;27;98816;-76
2021/08/09 09:20:27;;;;;;;1999.90;999.90;;;;;;;16.07;40.14;101255.44;5014342;27;98178;-76
2021/08/09 09:23:12;;;;;;;1999.90;999.90;;;;;;;16.13;39.98;101265.31;5022984;27;98220;-77
2021/08/09 09:25:41;;;;;;;1999.90;999.90;;;;;;;16.21;39.02;101260.91;5039901;27;97313;-77
2021/08/09 09:28:22;;;;;;;1999.90;999.90;;;;;;;16.27;38.75;101260.97;5017893;27;98059;-77
2021/08/09 09:30:50;;;;;;;1999.90;999.90;;;;;;;16.34;39.04;101255.63;5021257;27;99209;-76
2021/08/09 09:33:19;;;;;;;1999.90;999.90;;;;;;;16.41;38.93;101254.75;5021012;27;97986;-76
2021/08/09 09:35:50;;;;;;;1999.90;999.90;;;;;;;16.48;37.68;101258.34;5022476;27;97275;-76
2021/08/09 09:38:20;;;;;;;1999.90;999.90;;;;;;;16.55;37.22;101260.19;5019771;27;98084;-77
2021/08/09 09:40:48;;;;;;;1999.90;999.90;;;;;;;16.61;36.87;101254.84;5021163;27;97663;-76
2021/08/09 09:43:17;;;;;;;1999.90;999.90;;;;;;;16.44;37.76;101269.97;5022217;27;96988;-77
2021/08/09 09:45:56;;;;;;;1999.90;999.90;;;;;;;16.37;37.94;101261.00;5013895;27;97935;-76
2021/08/09 09:48:34;;;;;;;1999.90;999.90;;;;;;;16.33;37.55;101255.59;5037798;27;97728;-77
2021/08/09 09:51:13;;;;;;;1999.90;999.90;;;;;;;16.33;37.91;101269.03;5033778;27;98484;-77
2021/08/09 09:53:43;;;;;;;1999.90;999.90;;;;;;;16.32;39.00;101269.94;5020688;27;97702;-76
2021/08/09 09:56:11;;;;;;;1999.90;999.90;;;;;;;16.30;38.97;101251.13;5022464;27;96836;-76
2021/08/09 09:58:39;;;;;;;1999.90;999.90;;;;;;;16.53;37.97;101264.63;5020066;27;97955;-77
2021/08/09 10:01:09;;;;;;;1999.90;999.90;;;;;;;16.63;36.54;101255.75;5035775;27;97500;-77
2021/08/09 10:03:38;;;;;;;1999.90;999.90;;;;;;;16.72;35.85;101253.13;5019146;27;96830;-76
2021/08/09 10:06:06;;;;;;;1999.90;999.90;;;;;;;16.80;35.47;101262.09;5017892;27;97348;-75
2021/08/09 10:08:43;;;;;;;1999.90;999.90;;;;;;;16.89;35.46;101243.28;5037416;27;100972;-77
2021/08/09 10:11:11;;;;;;;1999.90;999.90;;;;;;;16.96;35.57;101237.94;5016457;27;97599;-77
2021/08/09 10:13:39;;;;;;;1999.90;999.90;;;;;;;17.06;35.64;101233.50;5020030;27;97934;-77
2021/08/09 10:16:09;;;;;;;1999.90;999.90;;;;;;;17.15;35.62;101240.66;5016980;27;97672;-77
2021/08/09 10:18:40;;;;;;;1999.90;999.90;;;;;;;17.23;34.96;101242.50;5020395;27;100396;-77
2021/08/09 10:21:08;;;;;;;1999.90;999.90;;;;;;;17.28;34.04;101246.06;5017519;27;97884;-76
2021/08/09 10:23:41;;;;;;;1999.90;999.90;;;;;;;17.33;33.70;101240.72;5016255;27;96868;-77
2021/08/09 10:26:12;;;;;;;1999.90;999.90;;;;;;;17.37;33.45;101267.59;5018213;27;98138;-76
2021/08/09 10:29:02;;;;;;;1999.90;999.90;;;;;;;17.41;33.30;101241.63;5015991;27;97906;-75
2021/08/09 10:31:31;;;;;;;1999.90;999.90;;;;;;;17.46;33.38;101251.50;5007828;27;99589;-77
2021/08/09 10:33:59;;;;;;;1999.90;999.90;;;;;;;17.50;33.41;101242.53;5020268;27;99109;-77
2021/08/09 10:36:27;;;;;;;1999.90;999.90;;;;;;;17.54;33.15;101255.09;5020955;27;97890;-77
2021/08/09 10:38:58;;;;;;;1999.90;999.90;;;;;;;17.59;32.66;101238.94;5016251;27;100172;-76
2021/08/09 10:41:36;;;;;;;1999.90;999.90;;;;;;;17.62;32.50;101239.81;5020535;27;98341;-77
2021/08/09 10:44:26;;;;;;;1999.90;999.90;;;;;;;17.64;32.43;101238.03;5015947;27;98163;-76
2021/08/09 10:46:56;;;;;;;1999.90;999.90;;;;;;;17.69;32.27;101236.22;5020645;27;96882;-77
2021/08/09 10:49:55;;;;;;;1999.90;999.90;;;;;;;17.76;32.24;101240.75;5019576;27;98291;-76
2021/08/09 10:52:48;;;;;;;1999.90;999.90;;;;;;;17.79;32.17;101251.50;5020676;27;98921;-77
2021/08/09 10:55:45;;;;;;;1999.90;999.90;;;;;;;17.79;32.18;101235.34;5022477;27;98037;-76
2021/08/09 10:58:52;;;;;;;1999.90;999.90;;;;;;;17.84;32.54;101236.22;4997281;27;98175;-77